Slayden, Tennessee
Current Conditions -  °F | °C
As of 3:06 AM on Monday 20 Oct 2014 (Local Time) from KCKV Reporting Station
Moderate Fog Moderate Fog  
Wind Chill: 44°   Ceiling: Unl
Heat Index: 44°   Visibility: 0.5mi
Dew Point: 44°   Wind: 0mph
Humidity: 100%   Direction: NA
Pressure: 30.06"   Gusts: NA
Location:  36.29°N, 87.47°W
Report Text: KCKV 200806Z AUTO 00000KT 1/2SM FG CLR 07/07 A3006 RMK AO2 T00670067
Loading
Personal Weather Stations






























Interactive Weather Map
Tropical Storm Tracking
New forecast layout! Learn more

10-Day Weather Forecast

Advertisements
Track Severe Weather on mobile